Freistadt, Austria
Current Conditions -  °F | °C
As of 9:50 PM on Wednesday 28 Jan 2015 (Local Time) from LOWL Reporting Station
Clear Clear  
Wind Chill: 25°   Ceiling: Unl
Heat Index: 30°   Visibility: 6mi
Dew Point: 27°   Wind: 5mph
Humidity: 86%   Direction: 80°E
Pressure: 29.74"   Gusts: NA
Location:  48.52°N, 14.5°E
Report Text: LOWL 281950Z 08004KT CAVOK M01/M03 Q1007 R08/19//95 NOSIG
Loading
Personal Weather Stations






























Interactive Weather Map New forecast layout! Learn more

10-Day Weather Forecast

Advertisements
Track Severe Weather on mobile